sensor_id;sensor_type;location;lat;lon;timestamp;P1;durP1;ratioP1;P2;durP2;ratioP2
3433;SDS011;1730;41.932;25.548;2023-04-15T00:00:15;10.87;;;6.10;;
3433;SDS011;1730;41.932;25.548;2023-04-15T00:02:41;11.37;;;5.40;;
3433;SDS011;1730;41.932;25.548;2023-04-15T00:05:08;8.60;;;5.53;;
3433;SDS011;1730;41.932;25.548;2023-04-15T00:07:34;8.90;;;5.37;;
3433;SDS011;1730;41.932;25.548;2023-04-15T00:10:00;9.77;;;5.83;;
3433;SDS011;1730;41.932;25.548;2023-04-15T00:12:26;8.33;;;5.20;;
3433;SDS011;1730;41.932;25.548;2023-04-15T00:14:52;11.00;;;5.43;;
3433;SDS011;1730;41.932;25.548;2023-04-15T00:17:18;10.20;;;5.23;;
3433;SDS011;1730;41.932;25.548;2023-04-15T00:19:44;9.43;;;5.50;;
3433;SDS011;1730;41.932;25.548;2023-04-15T00:22:10;9.47;;;6.10;;
3433;SDS011;1730;41.932;25.548;2023-04-15T00:24:36;9.60;;;6.70;;
3433;SDS011;1730;41.932;25.548;2023-04-15T00:27:02;6.83;;;5.93;;
3433;SDS011;1730;41.932;25.548;2023-04-15T00:29:28;15.80;;;6.70;;
3433;SDS011;1730;41.932;25.548;2023-04-15T00:31:54;9.50;;;6.33;;
3433;SDS011;1730;41.932;25.548;2023-04-15T00:34:21;9.33;;;6.30;;
3433;SDS011;1730;41.932;25.548;2023-04-15T00:36:47;11.63;;;7.50;;
3433;SDS011;1730;41.932;25.548;2023-04-15T00:39:13;11.23;;;6.77;;
3433;SDS011;1730;41.932;25.548;2023-04-15T00:41:40;10.87;;;6.70;;
3433;SDS011;1730;41.932;25.548;2023-04-15T00:44:06;12.20;;;7.07;;
3433;SDS011;1730;41.932;25.548;2023-04-15T00:46:34;10.20;;;6.17;;
3433;SDS011;1730;41.932;25.548;2023-04-15T00:49:01;10.73;;;7.03;;
3433;SDS011;1730;41.932;25.548;2023-04-15T00:51:29;13.33;;;6.13;;
3433;SDS011;1730;41.932;25.548;2023-04-15T00:54:03;12.50;;;6.27;;
3433;SDS011;1730;41.932;25.548;2023-04-15T00:56:32;11.43;;;6.30;;
3433;SDS011;1730;41.932;25.548;2023-04-15T00:59:00;10.40;;;6.60;;
3433;SDS011;1730;41.932;25.548;2023-04-15T01:01:26;12.53;;;7.10;;
3433;SDS011;1730;41.932;25.548;2023-04-15T01:03:54;11.50;;;6.67;;
3433;SDS011;1730;41.932;25.548;2023-04-15T01:06:20;12.23;;;7.20;;
3433;SDS011;1730;41.932;25.548;2023-04-15T01:08:46;6.60;;;5.13;;
3433;SDS011;1730;41.932;25.548;2023-04-15T01:11:12;7.03;;;5.50;;
3433;SDS011;1730;41.932;25.548;2023-04-15T01:13:38;10.67;;;5.73;;
3433;SDS011;1730;41.932;25.548;2023-04-15T01:16:05;10.00;;;5.23;;
3433;SDS011;1730;41.932;25.548;2023-04-15T01:18:31;7.40;;;5.10;;
3433;SDS011;1730;41.932;25.548;2023-04-15T01:20:57;11.50;;;5.67;;
3433;SDS011;1730;41.932;25.548;2023-04-15T01:23:25;8.90;;;5.70;;
3433;SDS011;1730;41.932;25.548;2023-04-15T01:25:52;9.70;;;5.13;;
3433;SDS011;1730;41.932;25.548;2023-04-15T01:28:17;7.77;;;5.07;;
3433;SDS011;1730;41.932;25.548;2023-04-15T01:30:44;4.43;;;4.10;;
3433;SDS011;1730;41.932;25.548;2023-04-15T01:33:09;3.70;;;3.40;;
3433;SDS011;1730;41.932;25.548;2023-04-15T01:35:35;5.90;;;5.07;;
3433;SDS011;1730;41.932;25.548;2023-04-15T01:38:03;5.70;;;4.33;;
3433;SDS011;1730;41.932;25.548;2023-04-15T01:40:32;10.40;;;4.70;;
3433;SDS011;1730;41.932;25.548;2023-04-15T01:42:58;6.20;;;4.40;;
3433;SDS011;1730;41.932;25.548;2023-04-15T01:45:23;8.13;;;5.07;;
3433;SDS011;1730;41.932;25.548;2023-04-15T01:47:49;6.10;;;4.83;;
3433;SDS011;1730;41.932;25.548;2023-04-15T01:50:14;7.87;;;4.60;;
3433;SDS011;1730;41.932;25.548;2023-04-15T01:52:40;5.70;;;5.00;;
3433;SDS011;1730;41.932;25.548;2023-04-15T01:55:06;10.43;;;5.20;;
3433;SDS011;1730;41.932;25.548;2023-04-15T01:57:33;8.60;;;5.53;;
3433;SDS011;1730;41.932;25.548;2023-04-15T01:59:58;5.50;;;4.70;;
3433;SDS011;1730;41.932;25.548;2023-04-15T02:02:24;8.20;;;4.57;;
3433;SDS011;1730;41.932;25.548;2023-04-15T02:04:49;12.43;;;5.97;;
3433;SDS011;1730;41.932;25.548;2023-04-15T02:07:15;8.37;;;7.50;;
3433;SDS011;1730;41.932;25.548;2023-04-15T02:09:40;10.67;;;7.80;;
3433;SDS011;1730;41.932;25.548;2023-04-15T02:12:08;9.33;;;8.43;;
3433;SDS011;1730;41.932;25.548;2023-04-15T02:14:33;11.03;;;8.27;;
3433;SDS011;1730;41.932;25.548;2023-04-15T02:16:59;9.60;;;8.13;;
3433;SDS011;1730;41.932;25.548;2023-04-15T02:19:32;17.53;;;8.73;;
3433;SDS011;1730;41.932;25.548;2023-04-15T02:21:58;15.77;;;9.17;;
3433;SDS011;1730;41.932;25.548;2023-04-15T02:24:26;14.13;;;9.40;;
3433;SDS011;1730;41.932;25.548;2023-04-15T02:26:52;12.80;;;9.30;;
3433;SDS011;1730;41.932;25.548;2023-04-15T02:29:18;10.60;;;8.80;;
3433;SDS011;1730;41.932;25.548;2023-04-15T02:31:43;15.90;;;10.90;;
3433;SDS011;1730;41.932;25.548;2023-04-15T02:34:09;22.60;;;11.13;;
3433;SDS011;1730;41.932;25.548;2023-04-15T02:36:35;17.77;;;11.53;;
3433;SDS011;1730;41.932;25.548;2023-04-15T02:39:01;13.03;;;10.23;;
3433;SDS011;1730;41.932;25.548;2023-04-15T02:41:26;12.83;;;9.67;;
3433;SDS011;1730;41.932;25.548;2023-04-15T02:43:54;18.03;;;11.70;;
3433;SDS011;1730;41.932;25.548;2023-04-15T02:46:20;14.00;;;9.93;;
3433;SDS011;1730;41.932;25.548;2023-04-15T02:48:47;17.30;;;11.23;;
3433;SDS011;1730;41.932;25.548;2023-04-15T02:51:19;15.77;;;10.80;;
3433;SDS011;1730;41.932;25.548;2023-04-15T02:53:47;13.60;;;9.77;;
3433;SDS011;1730;41.932;25.548;2023-04-15T02:56:13;11.73;;;9.53;;
3433;SDS011;1730;41.932;25.548;2023-04-15T02:58:43;34.80;;;20.60;;
3433;SDS011;1730;41.932;25.548;2023-04-15T03:01:09;25.53;;;14.00;;
3433;SDS011;1730;41.932;25.548;2023-04-15T03:03:35;23.33;;;11.00;;
3433;SDS011;1730;41.932;25.548;2023-04-15T03:06:01;14.33;;;10.50;;
3433;SDS011;1730;41.932;25.548;2023-04-15T03:08:26;13.43;;;8.60;;
3433;SDS011;1730;41.932;25.548;2023-04-15T03:10:52;18.90;;;7.73;;
3433;SDS011;1730;41.932;25.548;2023-04-15T03:13:18;52.50;;;28.57;;
3433;SDS011;1730;41.932;25.548;2023-04-15T03:15:45;25.63;;;15.10;;
3433;SDS011;1730;41.932;25.548;2023-04-15T03:18:11;15.63;;;9.83;;
3433;SDS011;1730;41.932;25.548;2023-04-15T03:20:37;16.20;;;8.00;;
3433;SDS011;1730;41.932;25.548;2023-04-15T03:23:02;17.07;;;7.57;;
3433;SDS011;1730;41.932;25.548;2023-04-15T03:25:27;16.33;;;8.93;;
3433;SDS011;1730;41.932;25.548;2023-04-15T03:27:53;10.57;;;8.07;;
3433;SDS011;1730;41.932;25.548;2023-04-15T03:30:18;9.27;;;8.30;;
3433;SDS011;1730;41.932;25.548;2023-04-15T03:32:44;13.10;;;8.63;;
3433;SDS011;1730;41.932;25.548;2023-04-15T03:35:10;9.97;;;8.07;;
3433;SDS011;1730;41.932;25.548;2023-04-15T03:37:36;14.53;;;7.40;;
3433;SDS011;1730;41.932;25.548;2023-04-15T03:40:01;9.83;;;7.30;;
3433;SDS011;1730;41.932;25.548;2023-04-15T03:42:27;20.90;;;7.97;;
3433;SDS011;1730;41.932;25.548;2023-04-15T03:44:52;9.20;;;7.70;;
3433;SDS011;1730;41.932;25.548;2023-04-15T03:47:18;13.63;;;9.53;;
3433;SDS011;1730;41.932;25.548;2023-04-15T03:49:43;14.27;;;8.93;;
3433;SDS011;1730;41.932;25.548;2023-04-15T03:52:08;18.20;;;8.87;;
3433;SDS011;1730;41.932;25.548;2023-04-15T03:54:34;21.60;;;9.67;;
3433;SDS011;1730;41.932;25.548;2023-04-15T03:56:59;18.90;;;8.60;;
3433;SDS011;1730;41.932;25.548;2023-04-15T03:59:25;11.40;;;8.00;;
3433;SDS011;1730;41.932;25.548;2023-04-15T04:01:51;14.60;;;8.07;;
3433;SDS011;1730;41.932;25.548;2023-04-15T04:04:16;15.50;;;9.27;;
3433;SDS011;1730;41.932;25.548;2023-04-15T04:06:42;14.23;;;9.40;;
3433;SDS011;1730;41.932;25.548;2023-04-15T04:09:08;13.73;;;7.80;;
3433;SDS011;1730;41.932;25.548;2023-04-15T04:11:33;10.20;;;8.13;;
3433;SDS011;1730;41.932;25.548;2023-04-15T04:13:58;15.50;;;8.67;;
3433;SDS011;1730;41.932;25.548;2023-04-15T04:16:24;8.30;;;6.40;;
3433;SDS011;1730;41.932;25.548;2023-04-15T04:18:50;13.23;;;7.20;;
3433;SDS011;1730;41.932;25.548;2023-04-15T04:21:15;9.70;;;7.97;;
3433;SDS011;1730;41.932;25.548;2023-04-15T04:23:41;11.00;;;8.00;;
3433;SDS011;1730;41.932;25.548;2023-04-15T04:26:06;12.00;;;8.20;;
3433;SDS011;1730;41.932;25.548;2023-04-15T04:28:32;10.37;;;7.53;;
3433;SDS011;1730;41.932;25.548;2023-04-15T04:30:59;8.73;;;7.83;;
3433;SDS011;1730;41.932;25.548;2023-04-15T04:33:25;12.57;;;7.07;;
3433;SDS011;1730;41.932;25.548;2023-04-15T04:35:50;8.90;;;7.03;;
3433;SDS011;1730;41.932;25.548;2023-04-15T04:38:16;7.37;;;6.67;;
3433;SDS011;1730;41.932;25.548;2023-04-15T04:40:41;10.90;;;7.43;;
3433;SDS011;1730;41.932;25.548;2023-04-15T04:43:07;12.73;;;6.70;;
3433;SDS011;1730;41.932;25.548;2023-04-15T04:45:33;11.57;;;7.87;;
3433;SDS011;1730;41.932;25.548;2023-04-15T04:47:58;9.87;;;6.80;;
3433;SDS011;1730;41.932;25.548;2023-04-15T04:50:24;7.83;;;5.33;;
3433;SDS011;1730;41.932;25.548;2023-04-15T04:52:50;7.00;;;6.47;;
3433;SDS011;1730;41.932;25.548;2023-04-15T04:55:15;12.87;;;11.77;;
3433;SDS011;1730;41.932;25.548;2023-04-15T04:57:41;19.00;;;12.00;;
3433;SDS011;1730;41.932;25.548;2023-04-15T05:00:06;12.17;;;8.10;;
3433;SDS011;1730;41.932;25.548;2023-04-15T05:02:33;11.60;;;7.50;;
3433;SDS011;1730;41.932;25.548;2023-04-15T05:04:58;12.07;;;9.47;;
3433;SDS011;1730;41.932;25.548;2023-04-15T05:07:24;7.50;;;6.77;;
3433;SDS011;1730;41.932;25.548;2023-04-15T05:09:50;14.20;;;7.80;;
3433;SDS011;1730;41.932;25.548;2023-04-15T05:12:16;7.57;;;5.97;;
3433;SDS011;1730;41.932;25.548;2023-04-15T05:14:42;8.77;;;6.77;;
3433;SDS011;1730;41.932;25.548;2023-04-15T05:17:08;9.20;;;8.10;;
3433;SDS011;1730;41.932;25.548;2023-04-15T05:19:34;6.93;;;6.13;;
3433;SDS011;1730;41.932;25.548;2023-04-15T05:21:59;6.07;;;4.40;;
3433;SDS011;1730;41.932;25.548;2023-04-15T05:24:25;8.60;;;5.37;;
3433;SDS011;1730;41.932;25.548;2023-04-15T05:26:51;5.50;;;4.10;;
3433;SDS011;1730;41.932;25.548;2023-04-15T05:29:16;9.23;;;5.77;;
3433;SDS011;1730;41.932;25.548;2023-04-15T05:31:42;6.57;;;4.33;;
3433;SDS011;1730;41.932;25.548;2023-04-15T05:34:07;5.40;;;4.60;;
3433;SDS011;1730;41.932;25.548;2023-04-15T05:36:33;6.20;;;4.50;;
3433;SDS011;1730;41.932;25.548;2023-04-15T05:38:58;4.50;;;4.00;;
3433;SDS011;1730;41.932;25.548;2023-04-15T05:41:25;7.87;;;5.13;;
3433;SDS011;1730;41.932;25.548;2023-04-15T05:43:50;4.40;;;4.10;;
3433;SDS011;1730;41.932;25.548;2023-04-15T05:46:15;5.23;;;4.70;;
3433;SDS011;1730;41.932;25.548;2023-04-15T05:48:41;6.93;;;3.77;;
3433;SDS011;1730;41.932;25.548;2023-04-15T05:51:06;3.90;;;3.27;;
3433;SDS011;1730;41.932;25.548;2023-04-15T05:53:32;11.83;;;8.90;;
3433;SDS011;1730;41.932;25.548;2023-04-15T05:55:57;4.70;;;3.70;;
3433;SDS011;1730;41.932;25.548;2023-04-15T05:58:23;5.33;;;3.07;;
3433;SDS011;1730;41.932;25.548;2023-04-15T06:00:48;5.13;;;4.00;;
3433;SDS011;1730;41.932;25.548;2023-04-15T06:03:14;5.20;;;3.30;;
3433;SDS011;1730;41.932;25.548;2023-04-15T06:05:40;3.37;;;3.07;;
3433;SDS011;1730;41.932;25.548;2023-04-15T06:08:05;3.20;;;2.67;;
3433;SDS011;1730;41.932;25.548;2023-04-15T06:10:31;15.23;;;3.97;;
3433;SDS011;1730;41.932;25.548;2023-04-15T06:13:00;3.37;;;2.43;;
3433;SDS011;1730;41.932;25.548;2023-04-15T06:15:29;5.37;;;3.40;;
3433;SDS011;1730;41.932;25.548;2023-04-15T06:17:55;2.40;;;2.20;;
3433;SDS011;1730;41.932;25.548;2023-04-15T06:20:20;4.67;;;4.00;;
3433;SDS011;1730;41.932;25.548;2023-04-15T06:22:46;7.23;;;2.70;;
3433;SDS011;1730;41.932;25.548;2023-04-15T06:25:11;5.40;;;2.97;;
3433;SDS011;1730;41.932;25.548;2023-04-15T06:27:38;4.13;;;2.60;;
3433;SDS011;1730;41.932;25.548;2023-04-15T06:30:04;2.57;;;2.20;;
3433;SDS011;1730;41.932;25.548;2023-04-15T06:32:31;6.83;;;2.87;;
3433;SDS011;1730;41.932;25.548;2023-04-15T06:34:57;3.30;;;2.77;;
3433;SDS011;1730;41.932;25.548;2023-04-15T06:37:22;2.60;;;2.40;;
3433;SDS011;1730;41.932;25.548;2023-04-15T06:39:47;4.23;;;3.20;;
3433;SDS011;1730;41.932;25.548;2023-04-15T06:42:13;3.10;;;2.90;;
3433;SDS011;1730;41.932;25.548;2023-04-15T06:44:39;3.90;;;2.60;;
3433;SDS011;1730;41.932;25.548;2023-04-15T06:47:05;3.20;;;2.90;;
3433;SDS011;1730;41.932;25.548;2023-04-15T06:49:30;5.80;;;2.80;;
3433;SDS011;1730;41.932;25.548;2023-04-15T06:51:56;3.10;;;2.87;;
3433;SDS011;1730;41.932;25.548;2023-04-15T06:54:21;2.53;;;2.33;;
3433;SDS011;1730;41.932;25.548;2023-04-15T06:56:47;7.27;;;5.60;;
3433;SDS011;1730;41.932;25.548;2023-04-15T06:59:13;4.40;;;2.10;;
3433;SDS011;1730;41.932;25.548;2023-04-15T07:01:41;6.50;;;4.53;;
3433;SDS011;1730;41.932;25.548;2023-04-15T07:04:07;4.20;;;3.67;;
3433;SDS011;1730;41.932;25.548;2023-04-15T07:06:33;2.60;;;2.40;;
3433;SDS011;1730;41.932;25.548;2023-04-15T07:08:59;2.27;;;2.07;;
3433;SDS011;1730;41.932;25.548;2023-04-15T07:11:25;6.40;;;5.63;;
3433;SDS011;1730;41.932;25.548;2023-04-15T07:13:51;5.13;;;4.63;;
3433;SDS011;1730;41.932;25.548;2023-04-15T07:16:17;3.30;;;2.70;;
3433;SDS011;1730;41.932;25.548;2023-04-15T07:18:42;3.77;;;2.17;;
3433;SDS011;1730;41.932;25.548;2023-04-15T07:21:08;2.83;;;2.03;;
3433;SDS011;1730;41.932;25.548;2023-04-15T07:23:34;2.57;;;2.17;;
3433;SDS011;1730;41.932;25.548;2023-04-15T07:25:59;5.90;;;2.67;;
3433;SDS011;1730;41.932;25.548;2023-04-15T07:28:25;3.33;;;2.13;;
3433;SDS011;1730;41.932;25.548;2023-04-15T07:30:51;2.40;;;2.20;;
3433;SDS011;1730;41.932;25.548;2023-04-15T07:33:17;2.50;;;2.17;;
3433;SDS011;1730;41.932;25.548;2023-04-15T07:35:42;6.77;;;2.47;;
3433;SDS011;1730;41.932;25.548;2023-04-15T07:38:09;2.57;;;2.00;;
3433;SDS011;1730;41.932;25.548;2023-04-15T07:40:36;6.50;;;2.67;;
3433;SDS011;1730;41.932;25.548;2023-04-15T07:43:03;1.60;;;1.50;;
3433;SDS011;1730;41.932;25.548;2023-04-15T07:45:30;6.10;;;2.00;;
3433;SDS011;1730;41.932;25.548;2023-04-15T07:47:55;4.33;;;2.60;;
3433;SDS011;1730;41.932;25.548;2023-04-15T07:50:21;3.67;;;2.90;;
3433;SDS011;1730;41.932;25.548;2023-04-15T07:52:47;6.23;;;2.20;;
3433;SDS011;1730;41.932;25.548;2023-04-15T07:55:13;3.53;;;2.37;;
3433;SDS011;1730;41.932;25.548;2023-04-15T07:57:40;5.43;;;2.00;;
3433;SDS011;1730;41.932;25.548;2023-04-15T08:00:06;2.47;;;2.07;;
3433;SDS011;1730;41.932;25.548;2023-04-15T08:02:32;6.03;;;2.00;;
3433;SDS011;1730;41.932;25.548;2023-04-15T08:04:57;2.60;;;2.10;;
3433;SDS011;1730;41.932;25.548;2023-04-15T08:07:24;4.03;;;2.40;;
3433;SDS011;1730;41.932;25.548;2023-04-15T08:09:50;12.97;;;3.47;;
3433;SDS011;1730;41.932;25.548;2023-04-15T08:12:16;4.50;;;3.00;;
3433;SDS011;1730;41.932;25.548;2023-04-15T08:14:41;4.20;;;2.70;;
3433;SDS011;1730;41.932;25.548;2023-04-15T08:17:07;5.73;;;2.50;;
3433;SDS011;1730;41.932;25.548;2023-04-15T08:19:33;3.87;;;1.90;;
3433;SDS011;1730;41.932;25.548;2023-04-15T08:21:58;2.60;;;2.30;;
3433;SDS011;1730;41.932;25.548;2023-04-15T08:24:24;2.57;;;1.80;;
3433;SDS011;1730;41.932;25.548;2023-04-15T08:26:50;6.80;;;2.00;;
3433;SDS011;1730;41.932;25.548;2023-04-15T08:29:16;3.97;;;2.00;;
3433;SDS011;1730;41.932;25.548;2023-04-15T08:31:42;2.63;;;2.00;;
3433;SDS011;1730;41.932;25.548;2023-04-15T08:34:07;3.33;;;2.17;;
3433;SDS011;1730;41.932;25.548;2023-04-15T08:36:33;4.63;;;3.07;;
3433;SDS011;1730;41.932;25.548;2023-04-15T08:38:59;3.40;;;2.00;;
3433;SDS011;1730;41.932;25.548;2023-04-15T08:41:31;2.20;;;1.97;;
3433;SDS011;1730;41.932;25.548;2023-04-15T08:44:04;3.17;;;2.77;;
3433;SDS011;1730;41.932;25.548;2023-04-15T08:46:30;3.10;;;1.90;;
3433;SDS011;1730;41.932;25.548;2023-04-15T08:48:58;8.27;;;6.10;;
3433;SDS011;1730;41.932;25.548;2023-04-15T08:51:24;6.07;;;2.20;;
3433;SDS011;1730;41.932;25.548;2023-04-15T08:53:49;3.53;;;2.33;;
3433;SDS011;1730;41.932;25.548;2023-04-15T08:56:17;3.13;;;2.47;;
3433;SDS011;1730;41.932;25.548;2023-04-15T08:58:44;2.40;;;2.20;;
3433;SDS011;1730;41.932;25.548;2023-04-15T09:01:11;5.40;;;1.87;;
3433;SDS011;1730;41.932;25.548;2023-04-15T09:03:38;1.80;;;1.70;;
3433;SDS011;1730;41.932;25.548;2023-04-15T09:06:04;5.17;;;1.80;;
3433;SDS011;1730;41.932;25.548;2023-04-15T09:08:31;3.07;;;2.10;;
3433;SDS011;1730;41.932;25.548;2023-04-15T09:10:58;4.03;;;2.30;;
3433;SDS011;1730;41.932;25.548;2023-04-15T09:13:24;1.80;;;1.70;;
3433;SDS011;1730;41.932;25.548;2023-04-15T09:15:49;3.03;;;2.40;;
3433;SDS011;1730;41.932;25.548;2023-04-15T09:18:25;2.60;;;2.33;;
3433;SDS011;1730;41.932;25.548;2023-04-15T09:20:53;4.40;;;2.00;;
3433;SDS011;1730;41.932;25.548;2023-04-15T09:23:18;2.80;;;1.90;;
3433;SDS011;1730;41.932;25.548;2023-04-15T09:25:44;2.00;;;1.80;;
3433;SDS011;1730;41.932;25.548;2023-04-15T09:28:10;2.77;;;1.53;;
3433;SDS011;1730;41.932;25.548;2023-04-15T09:30:36;7.30;;;1.90;;
3433;SDS011;1730;41.932;25.548;2023-04-15T09:33:02;5.30;;;2.03;;
3433;SDS011;1730;41.932;25.548;2023-04-15T09:35:35;2.13;;;1.90;;
3433;SDS011;1730;41.932;25.548;2023-04-15T09:38:07;2.77;;;1.87;;
3433;SDS011;1730;41.932;25.548;2023-04-15T09:43:02;4.30;;;3.40;;
3433;SDS011;1730;41.932;25.548;2023-04-15T09:45:29;4.43;;;2.43;;
3433;SDS011;1730;41.932;25.548;2023-04-15T09:47:56;7.97;;;2.77;;
3433;SDS011;1730;41.932;25.548;2023-04-15T09:50:22;6.43;;;2.20;;
3433;SDS011;1730;41.932;25.548;2023-04-15T09:52:52;3.10;;;2.30;;
3433;SDS011;1730;41.932;25.548;2023-04-15T09:55:18;4.90;;;2.30;;
3433;SDS011;1730;41.932;25.548;2023-04-15T09:57:43;3.90;;;2.67;;
3433;SDS011;1730;41.932;25.548;2023-04-15T10:00:12;7.53;;;2.80;;
3433;SDS011;1730;41.932;25.548;2023-04-15T10:02:39;2.50;;;2.27;;
3433;SDS011;1730;41.932;25.548;2023-04-15T10:05:06;4.70;;;2.33;;
3433;SDS011;1730;41.932;25.548;2023-04-15T10:07:34;2.27;;;1.80;;
3433;SDS011;1730;41.932;25.548;2023-04-15T10:10:00;2.43;;;2.07;;
3433;SDS011;1730;41.932;25.548;2023-04-15T10:12:28;4.30;;;2.10;;
3433;SDS011;1730;41.932;25.548;2023-04-15T10:14:59;2.43;;;1.90;;
3433;SDS011;1730;41.932;25.548;2023-04-15T10:17:32;2.37;;;1.90;;
3433;SDS011;1730;41.932;25.548;2023-04-15T10:20:02;8.57;;;1.97;;
3433;SDS011;1730;41.932;25.548;2023-04-15T10:22:29;5.40;;;2.00;;
3433;SDS011;1730;41.932;25.548;2023-04-15T10:24:55;4.67;;;2.70;;
3433;SDS011;1730;41.932;25.548;2023-04-15T10:27:22;2.37;;;2.17;;
3433;SDS011;1730;41.932;25.548;2023-04-15T10:29:49;5.23;;;1.80;;
3433;SDS011;1730;41.932;25.548;2023-04-15T10:32:17;2.63;;;2.10;;
3433;SDS011;1730;41.932;25.548;2023-04-15T10:34:44;4.00;;;2.80;;
3433;SDS011;1730;41.932;25.548;2023-04-15T10:37:11;3.03;;;2.40;;
3433;SDS011;1730;41.932;25.548;2023-04-15T10:39:40;5.10;;;1.90;;
3433;SDS011;1730;41.932;25.548;2023-04-15T10:42:10;6.00;;;2.50;;
3433;SDS011;1730;41.932;25.548;2023-04-15T10:44:50;3.17;;;1.80;;
3433;SDS011;1730;41.932;25.548;2023-04-15T10:47:20;2.43;;;2.00;;
3433;SDS011;1730;41.932;25.548;2023-04-15T10:49:47;8.50;;;2.33;;
3433;SDS011;1730;41.932;25.548;2023-04-15T10:52:15;3.03;;;2.13;;
3433;SDS011;1730;41.932;25.548;2023-04-15T10:54:42;3.10;;;1.70;;
3433;SDS011;1730;41.932;25.548;2023-04-15T10:57:13;2.50;;;2.30;;
3433;SDS011;1730;41.932;25.548;2023-04-15T11:03:08;3.77;;;2.17;;
3433;SDS011;1730;41.932;25.548;2023-04-15T11:05:48;5.87;;;2.40;;
3433;SDS011;1730;41.932;25.548;2023-04-15T11:08:15;6.27;;;2.13;;
3433;SDS011;1730;41.932;25.548;2023-04-15T11:15:38;4.23;;;2.43;;
3433;SDS011;1730;41.932;25.548;2023-04-15T11:18:15;5.87;;;2.30;;
3433;SDS011;1730;41.932;25.548;2023-04-15T11:20:43;6.03;;;2.40;;
3433;SDS011;1730;41.932;25.548;2023-04-15T11:23:11;4.00;;;2.43;;
3433;SDS011;1730;41.932;25.548;2023-04-15T11:25:38;9.80;;;2.17;;
3433;SDS011;1730;41.932;25.548;2023-04-15T11:28:04;2.50;;;1.80;;
3433;SDS011;1730;41.932;25.548;2023-04-15T11:30:31;22.37;;;3.03;;
3433;SDS011;1730;41.932;25.548;2023-04-15T11:33:05;1.97;;;1.63;;
3433;SDS011;1730;41.932;25.548;2023-04-15T11:35:36;6.43;;;2.50;;
3433;SDS011;1730;41.932;25.548;2023-04-15T11:38:08;5.83;;;1.97;;
3433;SDS011;1730;41.932;25.548;2023-04-15T11:40:38;4.90;;;2.20;;
3433;SDS011;1730;41.932;25.548;2023-04-15T11:43:08;5.90;;;1.93;;
3433;SDS011;1730;41.932;25.548;2023-04-15T11:48:22;6.40;;;2.47;;
3433;SDS011;1730;41.932;25.548;2023-04-15T11:50:56;7.37;;;3.00;;
3433;SDS011;1730;41.932;25.548;2023-04-15T11:53:22;4.30;;;2.40;;
3433;SDS011;1730;41.932;25.548;2023-04-15T11:55:51;2.43;;;1.70;;
3433;SDS011;1730;41.932;25.548;2023-04-15T11:58:22;4.63;;;1.77;;
3433;SDS011;1730;41.932;25.548;2023-04-15T12:00:56;9.80;;;2.67;;
3433;SDS011;1730;41.932;25.548;2023-04-15T12:03:27;10.63;;;3.47;;
3433;SDS011;1730;41.932;25.548;2023-04-15T12:11:27;4.40;;;2.20;;
3433;SDS011;1730;41.932;25.548;2023-04-15T12:16:38;2.70;;;1.47;;
3433;SDS011;1730;41.932;25.548;2023-04-15T12:19:09;2.00;;;1.30;;
3433;SDS011;1730;41.932;25.548;2023-04-15T12:21:38;2.33;;;1.67;;
3433;SDS011;1730;41.932;25.548;2023-04-15T12:24:05;4.37;;;1.70;;
3433;SDS011;1730;41.932;25.548;2023-04-15T12:29:09;3.23;;;1.57;;
3433;SDS011;1730;41.932;25.548;2023-04-15T12:31:35;2.60;;;1.87;;
3433;SDS011;1730;41.932;25.548;2023-04-15T12:34:02;5.90;;;1.83;;
3433;SDS011;1730;41.932;25.548;2023-04-15T12:36:29;2.70;;;1.33;;
3433;SDS011;1730;41.932;25.548;2023-04-15T12:39:00;2.53;;;1.43;;
3433;SDS011;1730;41.932;25.548;2023-04-15T12:41:27;3.83;;;1.57;;
3433;SDS011;1730;41.932;25.548;2023-04-15T12:43:52;3.70;;;1.50;;
3433;SDS011;1730;41.932;25.548;2023-04-15T12:46:18;2.70;;;1.57;;
3433;SDS011;1730;41.932;25.548;2023-04-15T12:48:44;2.57;;;1.77;;
3433;SDS011;1730;41.932;25.548;2023-04-15T12:51:10;2.17;;;1.70;;
3433;SDS011;1730;41.932;25.548;2023-04-15T12:53:36;1.80;;;1.40;;
3433;SDS011;1730;41.932;25.548;2023-04-15T12:56:01;8.40;;;2.17;;
3433;SDS011;1730;41.932;25.548;2023-04-15T12:58:27;4.83;;;2.00;;
3433;SDS011;1730;41.932;25.548;2023-04-15T13:00:52;5.00;;;2.10;;
3433;SDS011;1730;41.932;25.548;2023-04-15T13:03:17;3.67;;;1.63;;
3433;SDS011;1730;41.932;25.548;2023-04-15T13:05:43;2.40;;;1.43;;
3433;SDS011;1730;41.932;25.548;2023-04-15T13:08:08;1.97;;;1.80;;
3433;SDS011;1730;41.932;25.548;2023-04-15T13:10:34;5.63;;;1.50;;
3433;SDS011;1730;41.932;25.548;2023-04-15T13:13:03;2.07;;;1.67;;
3433;SDS011;1730;41.932;25.548;2023-04-15T13:15:29;3.10;;;2.03;;
3433;SDS011;1730;41.932;25.548;2023-04-15T13:17:55;4.90;;;2.20;;
3433;SDS011;1730;41.932;25.548;2023-04-15T13:20:20;5.53;;;2.30;;
3433;SDS011;1730;41.932;25.548;2023-04-15T13:22:46;2.77;;;2.00;;
3433;SDS011;1730;41.932;25.548;2023-04-15T13:25:11;3.03;;;1.80;;
3433;SDS011;1730;41.932;25.548;2023-04-15T13:27:37;4.70;;;2.40;;
3433;SDS011;1730;41.932;25.548;2023-04-15T13:30:03;3.00;;;2.40;;
3433;SDS011;1730;41.932;25.548;2023-04-15T13:32:29;4.00;;;2.20;;
3433;SDS011;1730;41.932;25.548;2023-04-15T13:34:55;3.60;;;1.70;;
3433;SDS011;1730;41.932;25.548;2023-04-15T13:37:24;3.03;;;2.30;;
3433;SDS011;1730;41.932;25.548;2023-04-15T13:39:54;3.43;;;1.90;;
3433;SDS011;1730;41.932;25.548;2023-04-15T13:42:20;3.10;;;1.60;;
3433;SDS011;1730;41.932;25.548;2023-04-15T13:44:46;2.93;;;1.70;;
3433;SDS011;1730;41.932;25.548;2023-04-15T13:47:13;3.57;;;1.33;;
3433;SDS011;1730;41.932;25.548;2023-04-15T13:49:40;3.63;;;1.80;;
3433;SDS011;1730;41.932;25.548;2023-04-15T13:52:05;2.83;;;1.77;;
3433;SDS011;1730;41.932;25.548;2023-04-15T13:54:31;4.17;;;1.70;;
3433;SDS011;1730;41.932;25.548;2023-04-15T13:56:56;5.00;;;1.60;;
3433;SDS011;1730;41.932;25.548;2023-04-15T13:59:22;13.67;;;1.60;;
3433;SDS011;1730;41.932;25.548;2023-04-15T14:01:49;3.50;;;2.00;;
3433;SDS011;1730;41.932;25.548;2023-04-15T14:04:14;2.00;;;1.27;;
3433;SDS011;1730;41.932;25.548;2023-04-15T14:06:40;2.63;;;1.47;;
3433;SDS011;1730;41.932;25.548;2023-04-15T14:09:05;3.37;;;1.40;;
3433;SDS011;1730;41.932;25.548;2023-04-15T14:11:31;1.80;;;1.40;;
3433;SDS011;1730;41.932;25.548;2023-04-15T14:13:59;1.63;;;1.43;;
3433;SDS011;1730;41.932;25.548;2023-04-15T14:16:25;4.80;;;1.63;;
3433;SDS011;1730;41.932;25.548;2023-04-15T14:18:50;2.70;;;1.60;;
3433;SDS011;1730;41.932;25.548;2023-04-15T14:21:16;4.20;;;1.63;;
3433;SDS011;1730;41.932;25.548;2023-04-15T14:23:41;3.10;;;1.67;;
3433;SDS011;1730;41.932;25.548;2023-04-15T14:26:07;2.77;;;1.70;;
3433;SDS011;1730;41.932;25.548;2023-04-15T14:28:32;2.50;;;2.30;;
3433;SDS011;1730;41.932;25.548;2023-04-15T14:30:58;2.20;;;1.70;;
3433;SDS011;1730;41.932;25.548;2023-04-15T14:33:24;5.23;;;2.30;;
3433;SDS011;1730;41.932;25.548;2023-04-15T14:35:49;6.73;;;1.70;;
3433;SDS011;1730;41.932;25.548;2023-04-15T14:38:16;4.13;;;1.60;;
3433;SDS011;1730;41.932;25.548;2023-04-15T14:40:42;2.67;;;1.83;;
3433;SDS011;1730;41.932;25.548;2023-04-15T14:43:07;6.37;;;2.03;;
3433;SDS011;1730;41.932;25.548;2023-04-15T14:45:33;5.13;;;2.23;;
3433;SDS011;1730;41.932;25.548;2023-04-15T14:48:01;3.00;;;1.80;;
3433;SDS011;1730;41.932;25.548;2023-04-15T14:50:26;4.53;;;1.60;;
3433;SDS011;1730;41.932;25.548;2023-04-15T14:52:52;2.10;;;1.90;;
3433;SDS011;1730;41.932;25.548;2023-04-15T14:55:17;5.33;;;1.43;;
3433;SDS011;1730;41.932;25.548;2023-04-15T14:57:43;2.43;;;1.90;;
3433;SDS011;1730;41.932;25.548;2023-04-15T15:00:09;4.13;;;1.80;;
3433;SDS011;1730;41.932;25.548;2023-04-15T15:02:35;3.73;;;1.63;;
3433;SDS011;1730;41.932;25.548;2023-04-15T15:05:02;4.97;;;1.47;;
3433;SDS011;1730;41.932;25.548;2023-04-15T15:07:28;2.00;;;1.40;;
3433;SDS011;1730;41.932;25.548;2023-04-15T15:09:54;2.27;;;1.60;;
3433;SDS011;1730;41.932;25.548;2023-04-15T15:12:20;3.20;;;1.77;;
3433;SDS011;1730;41.932;25.548;2023-04-15T15:14:47;2.03;;;1.30;;
3433;SDS011;1730;41.932;25.548;2023-04-15T15:17:13;2.10;;;1.37;;